Time;durP1;ratioP1;P1;durP2;ratioP2;P2;SDS_P1;SDS_P2;PMS_P1;PMS_P2;Temp;Humidity;BMP_temperature;BMP_pressure;BME280_temperature;BME280_humidity;BME280_pressure;Samples;Min_cycle;Max_cycle;Signal;HPM_P1;HPM_P2
2021/06/06 00:02:06;;;;;;;33.63;24.17;;;16.40;99.90;;;;;;5090845;28;20105;-66
2021/06/06 00:04:31;;;;;;;36.20;25.70;;;16.40;99.90;;;;;;5090981;28;20058;-66
2021/06/06 00:06:59;;;;;;;36.45;25.25;;;16.40;99.90;;;;;;5091235;28;20092;-66
2021/06/06 00:09:25;;;;;;;33.97;23.80;;;16.30;99.90;;;;;;5091959;28;20097;-65
2021/06/06 00:11:54;;;;;;;31.55;22.90;;;16.40;99.90;;;;;;5091911;28;20024;-66
2021/06/06 00:14:31;;;;;;;34.45;24.83;;;16.30;99.90;;;;;;5091907;28;20024;-66
2021/06/06 00:16:59;;;;;;;38.58;25.98;;;16.30;99.90;;;;;;5090651;28;20085;-65
2021/06/06 00:19:27;;;;;;;37.92;26.10;;;16.40;99.90;;;;;;5091915;28;20077;-66
2021/06/06 00:21:57;;;;;;;36.58;24.48;;;16.40;99.90;;;;;;5091738;28;20058;-66
2021/06/06 00:24:29;;;;;;;34.43;25.53;;;16.30;99.90;;;;;;5091838;28;20111;-65
2021/06/06 00:26:55;;;;;;;37.47;25.98;;;16.30;99.90;;;;;;5091781;28;20024;-66
2021/06/06 00:29:22;;;;;;;34.45;25.10;;;16.20;99.90;;;;;;5090347;28;20055;-66
2021/06/06 00:31:51;;;;;;;40.65;26.05;;;16.20;99.90;;;;;;5091601;28;20047;-66
2021/06/06 00:34:20;;;;;;;34.15;25.90;;;16.20;99.90;;;;;;5090887;28;20023;-65
2021/06/06 00:36:45;;;;;;;39.00;27.15;;;16.20;99.90;;;;;;5091563;28;20110;-65
2021/06/06 00:39:11;;;;;;;38.05;26.13;;;16.10;99.90;;;;;;5091640;28;20535;-65
2021/06/06 00:41:39;;;;;;;34.20;23.88;;;16.10;99.90;;;;;;5091781;28;20449;-65
2021/06/06 00:44:07;;;;;;;33.35;23.17;;;16.20;99.90;;;;;;5091551;28;20113;-66
2021/06/06 00:46:32;;;;;;;36.03;22.42;;;16.10;99.90;;;;;;5091568;28;20103;-65
2021/06/06 00:49:00;;;;;;;30.58;21.92;;;16.10;99.90;;;;;;5090819;28;20601;-65
2021/06/06 00:51:35;;;;;;;36.63;23.15;;;16.00;99.90;;;;;;5091759;28;20555;-65
2021/06/06 00:54:10;;;;;;;33.45;23.65;;;16.00;99.90;;;;;;5091404;28;20024;-65
2021/06/06 00:56:39;;;;;;;33.28;23.25;;;15.90;99.90;;;;;;5090443;28;20051;-66
2021/06/06 00:59:05;;;;;;;33.38;23.85;;;16.00;99.90;;;;;;5091410;28;20365;-65
2021/06/06 01:01:31;;;;;;;38.30;23.45;;;16.10;99.90;;;;;;5091268;28;20452;-65
2021/06/06 01:03:59;;;;;;;32.15;22.20;;;16.00;99.90;;;;;;5091367;28;20039;-65
2021/06/06 01:06:34;;;;;;;36.45;24.65;;;16.00;99.90;;;;;;5091273;28;20435;-65
2021/06/06 01:09:05;;;;;;;38.42;24.63;;;16.00;99.90;;;;;;5091296;28;20024;-65
2021/06/06 01:12:11;;;;;;;32.70;23.15;;;15.90;99.90;;;;;;5090568;28;20057;-65
2021/06/06 01:14:43;;;;;;;32.45;24.17;;;15.90;99.90;;;;;;5091315;28;20028;-66
2021/06/06 01:17:26;;;;;;;32.20;21.42;;;15.80;99.90;;;;;;5091113;28;20091;-65
2021/06/06 01:20:11;;;;;;;36.00;23.70;;;15.80;99.90;;;;;;5091260;28;20023;-64
2021/06/06 01:22:57;;;;;;;37.40;22.33;;;15.80;99.90;;;;;;5090981;28;20027;-66
2021/06/06 01:25:36;;;;;;;33.38;22.80;;;15.80;99.90;;;;;;5091016;28;20030;-65
2021/06/06 01:28:07;;;;;;;34.35;23.23;;;15.70;99.90;;;;;;5090844;28;20036;-67
2021/06/06 01:30:38;;;;;;;33.95;22.67;;;15.70;99.90;;;;;;5091359;28;20380;-65
2021/06/06 01:33:13;;;;;;;34.28;21.65;;;15.40;99.90;;;;;;5090986;28;20020;-65
2021/06/06 01:35:48;;;;;;;32.22;20.52;;;15.60;99.90;;;;;;5090984;28;20052;-66
2021/06/06 01:38:21;;;;;;;29.55;19.48;;;15.60;99.90;;;;;;5090745;28;20040;-65
2021/06/06 01:40:51;;;;;;;29.27;19.77;;;15.70;99.90;;;;;;5090892;28;20028;-65
2021/06/06 01:43:26;;;;;;;27.90;20.40;;;15.50;99.90;;;;;;5090918;28;20020;-65
2021/06/06 01:45:59;;;;;;;29.27;20.02;;;15.60;99.90;;;;;;5094113;28;20085;-66
2021/06/06 01:48:27;;;;;;;29.75;18.95;;;15.50;99.90;;;;;;5094192;28;20028;-65
2021/06/06 01:51:09;;;;;;;26.85;19.25;;;15.50;99.90;;;;;;5094285;28;20088;-65
2021/06/06 01:53:37;;;;;;;30.85;21.23;;;15.50;99.90;;;;;;5094304;28;20023;-65
2021/06/06 01:56:06;;;;;;;27.10;18.35;;;15.50;99.90;;;;;;5094320;28;20157;-65
2021/06/06 01:58:33;;;;;;;28.05;19.85;;;15.50;99.90;;;;;;5093135;28;20402;-65
2021/06/06 02:01:07;;;;;;;27.65;19.73;;;15.60;99.90;;;;;;5094162;28;20030;-66
2021/06/06 02:03:36;;;;;;;25.95;17.15;;;15.60;99.90;;;;;;5094113;28;20036;-66
2021/06/06 02:06:02;;;;;;;24.00;17.73;;;15.60;99.90;;;;;;5094278;28;20051;-66
2021/06/06 02:08:35;;;;;;;24.00;17.45;;;15.50;99.90;;;;;;5092993;28;20032;-66
2021/06/06 02:11:10;;;;;;;23.83;17.15;;;15.60;99.90;;;;;;5093023;28;20046;-66
2021/06/06 02:13:43;;;;;;;24.85;17.60;;;15.60;99.90;;;;;;5093219;28;20488;-65
2021/06/06 02:16:15;;;;;;;26.48;18.15;;;15.60;99.90;;;;;;5094003;28;20024;-66
2021/06/06 02:18:40;;;;;;;;;;;15.60;99.90;;;;;;5093422;28;20095;-65
2021/06/06 02:21:06;;;;;;;27.50;17.58;;;15.50;99.90;;;;;;5092788;28;19943;-65
2021/06/06 02:23:36;;;;;;;26.83;18.55;;;15.40;99.90;;;;;;5094082;28;20559;-65
2021/06/06 02:26:21;;;;;;;29.17;18.80;;;15.40;99.90;;;;;;5093999;28;20122;-66
2021/06/06 02:28:51;;;;;;;26.88;18.65;;;15.40;99.90;;;;;;5093555;28;20048;-65
2021/06/06 02:31:29;;;;;;;25.25;16.98;;;15.50;99.90;;;;;;5094009;28;20423;-65
2021/06/06 02:34:05;;;;;;;27.95;18.63;;;15.50;99.90;;;;;;5093825;28;20495;-65
2021/06/06 02:36:32;;;;;;;32.17;18.65;;;15.50;99.90;;;;;;5092726;28;20128;-65
2021/06/06 02:39:09;;;;;;;27.27;17.05;;;15.40;99.90;;;;;;5093774;28;20020;-65
2021/06/06 02:41:59;;;;;;;25.45;17.20;;;15.40;99.90;;;;;;5093752;28;20115;-66
2021/06/06 02:44:38;;;;;;;25.55;17.50;;;15.40;99.90;;;;;;5093759;28;20464;-66
2021/06/06 02:47:05;;;;;;;27.63;18.45;;;15.40;99.90;;;;;;5093602;28;20032;-66
2021/06/06 02:49:39;;;;;;;26.40;18.98;;;15.30;99.90;;;;;;5093418;28;20031;-66
2021/06/06 02:52:47;;;;;;;25.20;17.80;;;15.40;99.90;;;;;;5093450;28;20024;-66
2021/06/06 02:55:21;;;;;;;27.80;18.80;;;15.40;99.90;;;;;;5092444;28;20055;-65
2021/06/06 02:57:52;;;;;;;30.42;20.15;;;15.40;99.90;;;;;;5092060;28;20039;-66
2021/06/06 03:00:27;;;;;;;30.85;19.95;;;15.40;99.90;;;;;;5093411;28;20024;-65
2021/06/06 03:02:58;;;;;;;49.30;21.35;;;15.40;99.90;;;;;;5093320;28;20028;-65
2021/06/06 03:05:28;;;;;;;25.80;19.00;;;15.40;99.90;;;;;;5093480;28;20360;-65
2021/06/06 03:07:58;;;;;;;30.30;19.83;;;15.40;99.90;;;;;;5093049;28;20031;-65
2021/06/06 03:10:28;;;;;;;30.85;19.80;;;15.50;99.90;;;;;;5088451;28;20567;-66
2021/06/06 03:12:56;;;;;;;28.60;19.02;;;15.40;99.90;;;;;;5072782;28;20107;-66
2021/06/06 03:15:28;;;;;;;25.92;19.33;;;15.40;99.90;;;;;;5072935;28;20017;-65
2021/06/06 03:17:54;;;;;;;25.88;18.10;;;15.40;99.90;;;;;;5072749;28;20013;-66
2021/06/06 03:20:39;;;;;;;29.88;19.67;;;15.40;99.90;;;;;;5072598;28;20024;-66
2021/06/06 03:23:13;;;;;;;29.48;20.90;;;15.40;99.90;;;;;;5072643;28;20460;-65
2021/06/06 03:26:05;;;;;;;28.35;20.13;;;15.30;99.90;;;;;;5072660;28;20028;-65
2021/06/06 03:28:32;;;;;;;;;;;15.40;99.90;;;;;;5071827;28;20076;-65
2021/06/06 03:31:02;;;;;;;33.47;21.33;;;15.30;99.90;;;;;;5071461;28;19912;-65
2021/06/06 03:33:50;;;;;;;34.78;22.33;;;15.40;99.90;;;;;;5072366;28;20448;-65
2021/06/06 03:36:22;;;;;;;32.85;21.60;;;15.30;99.90;;;;;;5085585;28;20542;-64
2021/06/06 03:38:52;;;;;;;29.92;19.67;;;15.40;99.90;;;;;;5092308;28;20028;-64
2021/06/06 03:41:21;;;;;;;30.73;21.40;;;15.40;99.90;;;;;;5093333;28;20020;-65
2021/06/06 03:43:49;;;;;;;33.42;20.75;;;15.30;99.90;;;;;;5091207;28;20442;-65
2021/06/06 03:46:17;;;;;;;25.63;18.15;;;15.30;99.90;;;;;;5092363;28;20095;-65
2021/06/06 03:48:45;;;;;;;26.23;17.55;;;15.40;99.90;;;;;;5092203;28;20051;-65
2021/06/06 03:51:15;;;;;;;25.65;19.58;;;15.30;99.90;;;;;;5091010;28;20062;-65
2021/06/06 03:53:41;;;;;;;23.85;17.25;;;15.40;99.90;;;;;;5092112;28;20020;-64
2021/06/06 03:56:10;;;;;;;24.83;16.30;;;15.40;99.90;;;;;;5092651;28;20088;-64
2021/06/06 03:58:39;;;;;;;26.45;16.25;;;15.30;99.90;;;;;;5091925;28;20484;-65
2021/06/06 04:01:06;;;;;;;23.90;15.82;;;15.40;99.90;;;;;;5091971;28;20043;-66
2021/06/06 04:03:34;;;;;;;22.15;15.65;;;15.20;99.90;;;;;;5091982;28;20031;-65
2021/06/06 04:06:03;;;;;;;22.55;15.75;;;15.20;99.90;;;;;;5091979;28;20024;-65
2021/06/06 04:08:32;;;;;;;21.38;15.25;;;15.30;99.90;;;;;;5090996;28;20508;-65
2021/06/06 04:11:03;;;;;;;21.65;16.40;;;15.20;99.90;;;;;;5091928;28;20104;-65
2021/06/06 04:13:28;;;;;;;21.45;15.15;;;15.30;99.90;;;;;;5090685;28;20032;-64
2021/06/06 04:15:58;;;;;;;20.50;15.10;;;15.20;99.90;;;;;;5091715;28;20092;-65
2021/06/06 04:18:30;;;;;;;21.02;15.70;;;15.20;99.90;;;;;;5091715;28;20475;-65
2021/06/06 04:20:59;;;;;;;23.45;17.38;;;15.20;99.90;;;;;;5091675;28;20028;-65
2021/06/06 04:23:28;;;;;;;26.35;15.77;;;15.30;99.90;;;;;;5091605;28;20527;-64
2021/06/06 04:25:54;;;;;;;23.95;16.20;;;15.30;99.90;;;;;;5091594;28;20036;-65
2021/06/06 04:28:22;;;;;;;23.92;16.98;;;15.30;99.90;;;;;;5091440;28;20036;-64
2021/06/06 04:30:51;;;;;;;21.63;16.00;;;15.40;99.90;;;;;;5091449;28;20066;-65
2021/06/06 04:33:20;;;;;;;23.05;16.48;;;15.40;99.90;;;;;;5091506;28;20024;-65
2021/06/06 04:35:48;;;;;;;23.90;16.92;;;15.40;99.90;;;;;;5091647;28;20024;-65
2021/06/06 04:38:20;;;;;;;23.48;16.90;;;15.30;99.90;;;;;;5091465;28;20017;-64
2021/06/06 04:40:48;;;;;;;23.42;15.95;;;15.20;99.90;;;;;;5091594;28;20047;-65
2021/06/06 04:43:17;;;;;;;22.00;15.85;;;15.20;99.90;;;;;;5091387;28;20107;-65
2021/06/06 04:45:42;;;;;;;21.50;15.75;;;15.20;99.90;;;;;;5090271;28;20024;-64
2021/06/06 04:48:15;;;;;;;26.95;18.95;;;15.20;99.90;;;;;;5090223;28;20482;-65
2021/06/06 04:50:45;;;;;;;29.30;19.52;;;15.30;99.90;;;;;;5091479;28;20459;-65
2021/06/06 04:53:11;;;;;;;26.73;18.40;;;15.30;99.90;;;;;;5091212;28;20024;-65
2021/06/06 04:55:40;;;;;;;29.15;19.10;;;15.20;99.90;;;;;;5090129;28;20101;-65
2021/06/06 04:58:10;;;;;;;27.60;19.30;;;15.20;99.90;;;;;;5090327;28;20237;-65
2021/06/06 05:00:36;;;;;;;24.77;18.08;;;15.10;99.90;;;;;;5091274;28;20036;-65
2021/06/06 05:03:07;;;;;;;26.17;18.17;;;15.20;99.90;;;;;;5091273;28;20035;-65
2021/06/06 05:05:35;;;;;;;28.95;19.10;;;15.10;99.90;;;;;;5091341;28;20028;-64
2021/06/06 05:08:02;;;;;;;24.77;17.20;;;15.10;99.90;;;;;;5091174;28;20120;-65
2021/06/06 05:10:30;;;;;;;26.20;18.92;;;15.20;99.90;;;;;;5091068;28;20024;-65
2021/06/06 05:12:58;;;;;;;23.80;18.20;;;15.20;99.90;;;;;;5091198;28;20448;-65
2021/06/06 05:15:24;;;;;;;25.15;17.45;;;15.20;99.90;;;;;;5091166;28;20020;-65
2021/06/06 05:17:52;;;;;;;26.27;18.27;;;15.20;99.90;;;;;;5091152;28;20034;-65
2021/06/06 05:20:22;;;;;;;27.23;18.92;;;15.30;99.90;;;;;;5092768;28;20024;-65
2021/06/06 05:22:52;;;;;;;28.10;18.15;;;15.20;99.90;;;;;;5094436;28;20085;-64
2021/06/06 05:25:17;;;;;;;27.60;18.92;;;15.20;99.90;;;;;;5093196;28;20448;-65
2021/06/06 05:27:45;;;;;;;28.33;18.80;;;15.20;99.90;;;;;;5094954;28;20057;-64
2021/06/06 05:30:16;;;;;;;31.00;21.48;;;15.10;99.90;;;;;;5094562;28;20136;-65
2021/06/06 05:32:42;;;;;;;28.70;20.95;;;15.20;99.90;;;;;;5095018;28;20013;-66
2021/06/06 05:35:10;;;;;;;28.48;21.42;;;15.00;99.90;;;;;;5094831;28;20020;-66
2021/06/06 05:37:36;;;;;;;29.20;21.35;;;14.90;99.90;;;;;;5094601;28;20024;-66
2021/06/06 05:40:06;;;;;;;39.75;25.38;;;14.90;99.90;;;;;;5094739;28;20028;-66
2021/06/06 05:42:36;;;;;;;39.70;24.83;;;14.90;99.90;;;;;;5094750;28;20032;-67
2021/06/06 05:45:04;;;;;;;35.25;24.40;;;14.80;99.90;;;;;;5094924;28;20024;-67
2021/06/06 05:47:32;;;;;;;39.65;24.55;;;14.80;99.90;;;;;;5091995;28;20381;-66
2021/06/06 05:50:00;;;;;;;35.22;23.27;;;14.80;99.90;;;;;;5093885;28;20024;-67
2021/06/06 05:52:25;;;;;;;40.50;25.92;;;14.70;99.90;;;;;;5093714;28;20353;-67
2021/06/06 05:54:51;;;;;;;40.83;27.13;;;14.70;99.90;;;;;;5094033;28;20012;-67
2021/06/06 05:57:17;;;;;;;39.38;26.25;;;14.70;99.90;;;;;;5093874;28;20068;-67
2021/06/06 05:59:45;;;;;;;43.88;27.80;;;14.70;99.90;;;;;;5093759;28;20073;-67
2021/06/06 06:02:11;;;;;;;40.78;25.65;;;14.70;99.90;;;;;;5093723;28;20039;-67
2021/06/06 06:04:38;;;;;;;42.42;24.95;;;14.70;99.90;;;;;;5093553;28;20020;-68
2021/06/06 06:07:04;;;;;;;40.97;25.88;;;14.70;99.90;;;;;;5093735;28;20032;-67
2021/06/06 06:09:34;;;;;;;44.03;26.58;;;14.80;99.90;;;;;;5093646;28;20020;-68
2021/06/06 06:12:00;;;;;;;38.33;25.85;;;14.70;99.90;;;;;;5093434;28;20032;-67
2021/06/06 06:14:26;;;;;;;43.92;28.50;;;14.70;99.90;;;;;;5093427;28;20016;-67
2021/06/06 06:16:54;;;;;;;40.78;25.63;;;14.70;99.90;;;;;;5093330;28;20443;-66
2021/06/06 06:19:22;;;;;;;36.75;25.30;;;14.70;99.90;;;;;;5093211;28;20411;-66
2021/06/06 06:21:49;;;;;;;41.83;26.85;;;14.80;99.90;;;;;;5090851;28;20031;-66
2021/06/06 06:24:15;;;;;;;39.42;26.65;;;14.90;99.90;;;;;;5093156;28;20069;-66
2021/06/06 06:26:45;;;;;;;40.65;27.17;;;14.80;99.90;;;;;;5093347;28;20125;-66
2021/06/06 06:29:13;;;;;;;36.80;24.63;;;14.90;99.90;;;;;;5092973;28;20464;-65
2021/06/06 06:31:39;;;;;;;36.35;26.33;;;14.90;99.90;;;;;;5092469;28;20024;-66
2021/06/06 06:34:05;;;;;;;41.67;27.80;;;14.90;99.90;;;;;;5093627;28;20405;-66
2021/06/06 06:36:31;;;;;;;45.13;29.13;;;15.00;99.90;;;;;;5092139;28;20023;-66
2021/06/06 06:38:57;;;;;;;51.35;29.08;;;15.00;99.90;;;;;;5091294;28;20154;-68
2021/06/06 06:41:27;;;;;;;41.20;26.88;;;15.10;99.90;;;;;;5092270;28;20342;-66
2021/06/06 06:43:53;;;;;;;43.72;28.23;;;15.10;99.90;;;;;;5090771;28;20016;-66
2021/06/06 06:46:19;;;;;;;46.95;30.63;;;15.00;99.90;;;;;;5093160;28;20333;-66
2021/06/06 06:48:46;;;;;;;41.60;28.48;;;15.10;99.90;;;;;;5093156;28;20039;-66
2021/06/06 06:51:12;;;;;;;54.28;31.33;;;14.90;99.90;;;;;;5091801;28;20066;-67
2021/06/06 06:53:43;;;;;;;52.42;32.85;;;14.90;99.90;;;;;;5092304;28;20128;-66
2021/06/06 06:56:13;;;;;;;56.92;33.25;;;14.80;99.90;;;;;;5092967;28;20021;-66
2021/06/06 06:58:39;;;;;;;55.38;34.28;;;14.80;99.90;;;;;;5092730;28;20040;-67
2021/06/06 07:01:09;;;;;;;57.83;34.10;;;14.80;99.90;;;;;;5092995;28;20377;-66
2021/06/06 07:03:35;;;;;;;56.13;33.20;;;14.90;99.90;;;;;;5092800;28;20342;-66
2021/06/06 07:06:07;;;;;;;63.50;36.58;;;14.80;99.90;;;;;;5093069;28;20027;-66
2021/06/06 07:08:36;;;;;;;62.88;35.78;;;14.80;99.90;;;;;;5092307;28;20023;-66
2021/06/06 07:11:05;;;;;;;65.82;38.33;;;14.90;99.90;;;;;;5088644;28;20035;-66
2021/06/06 07:13:33;;;;;;;57.22;36.53;;;14.90;99.90;;;;;;5092560;28;20547;-66
2021/06/06 07:16:00;;;;;;;63.00;37.85;;;14.90;99.90;;;;;;5092662;28;20079;-66
2021/06/06 07:18:27;;;;;;;70.35;39.25;;;14.90;99.90;;;;;;5093301;28;20058;-66
2021/06/06 07:20:56;;;;;;;66.75;37.63;;;14.90;99.90;;;;;;5093037;28;20035;-66
2021/06/06 07:23:27;;;;;;;62.85;37.33;;;14.90;99.90;;;;;;5092921;28;20551;-66
2021/06/06 07:25:55;;;;;;;67.50;38.42;;;15.00;99.90;;;;;;5091928;28;20059;-69
2021/06/06 07:28:24;;;;;;;61.83;38.50;;;15.00;99.90;;;;;;5091831;28;20085;-66
2021/06/06 07:30:56;;;;;;;61.38;35.85;;;15.10;99.90;;;;;;5092780;28;20127;-66
2021/06/06 07:33:29;;;;;;;57.38;36.70;;;15.20;99.90;;;;;;5092776;28;20099;-66
2021/06/06 07:35:59;;;;;;;59.95;37.40;;;15.20;99.90;;;;;;5092792;28;20038;-67
2021/06/06 07:38:26;;;;;;;78.38;38.92;;;15.20;99.90;;;;;;5093069;28;20028;-66
2021/06/06 07:40:55;;;;;;;61.58;36.92;;;15.20;99.90;;;;;;5092791;28;20028;-67
2021/06/06 07:43:24;;;;;;;62.13;38.05;;;15.20;99.90;;;;;;5092568;28;20028;-66
2021/06/06 07:45:52;;;;;;;60.67;35.22;;;15.20;99.90;;;;;;5092474;28;20024;-67
2021/06/06 07:48:18;;;;;;;64.70;39.10;;;15.30;99.90;;;;;;5091687;28;20107;-67
2021/06/06 07:50:49;;;;;;;63.22;36.45;;;15.30;99.90;;;;;;5092344;28;20031;-67
2021/06/06 07:53:16;;;;;;;69.07;39.22;;;15.30;99.90;;;;;;5092579;28;20038;-66
2021/06/06 07:55:44;;;;;;;72.93;38.40;;;15.30;99.90;;;;;;5092609;28;20039;-67
2021/06/06 07:58:15;;;;;;;66.63;39.42;;;15.30;99.90;;;;;;5092439;28;20116;-67
2021/06/06 08:00:44;;;;;;;74.03;40.25;;;15.30;99.90;;;;;;5092624;28;20158;-66
2021/06/06 08:03:10;;;;;;;72.65;40.80;;;15.30;99.90;;;;;;5092292;28;20036;-66
2021/06/06 08:05:37;;;;;;;67.82;39.03;;;15.30;99.90;;;;;;5092290;28;20036;-67
2021/06/06 08:08:06;;;;;;;73.00;40.47;;;15.30;99.90;;;;;;5092174;28;20101;-67
2021/06/06 08:10:34;;;;;;;80.97;42.90;;;15.40;99.90;;;;;;5092101;28;20023;-64
2021/06/06 08:13:00;;;;;;;72.88;40.33;;;15.40;99.90;;;;;;5092257;28;20096;-66
2021/06/06 08:15:28;;;;;;;79.43;42.70;;;15.30;99.90;;;;;;5092095;28;20016;-66
2021/06/06 08:17:55;;;;;;;71.25;40.35;;;15.30;99.90;;;;;;5091975;28;20039;-66
2021/06/06 08:20:27;;;;;;;74.93;41.17;;;15.30;99.90;;;;;;5090866;28;20020;-67
2021/06/06 08:22:56;;;;;;;69.75;40.03;;;15.40;99.90;;;;;;5092029;28;20077;-66
2021/06/06 08:25:24;;;;;;;61.53;38.42;;;15.40;99.90;;;;;;5092147;28;20034;-65
2021/06/06 08:27:55;;;;;;;68.07;39.72;;;15.40;99.90;;;;;;5091747;28;20048;-64
2021/06/06 08:30:26;;;;;;;73.80;38.30;;;15.40;99.90;;;;;;5092051;28;20017;-65
2021/06/06 08:32:54;;;;;;;67.82;37.53;;;15.40;99.90;;;;;;5090827;28;20769;-66
2021/06/06 08:35:23;;;;;;;58.90;35.90;;;15.40;99.90;;;;;;5091908;28;20024;-67
2021/06/06 08:37:51;;;;;;;63.10;35.88;;;15.50;99.90;;;;;;5091703;28;20024;-66
2021/06/06 08:40:59;;;;;;;63.50;33.83;;;15.60;99.90;;;;;;5091773;28;20055;-65
2021/06/06 08:43:39;;;;;;;52.53;32.97;;;15.70;99.90;;;;;;5091985;28;20058;-66
2021/06/06 08:46:06;;;;;;;58.38;33.75;;;15.80;99.90;;;;;;5091863;28;20108;-66
2021/06/06 08:48:32;;;;;;;63.10;37.45;;;16.00;99.90;;;;;;5091811;28;20114;-66
2021/06/06 08:51:34;;;;;;;58.40;35.03;;;16.00;99.90;;;;;;5091908;28;20111;-66
2021/06/06 08:54:15;;;;;;;67.72;39.95;;;15.90;99.90;;;;;;5091240;28;20035;-65
2021/06/06 08:56:42;;;;;;;70.35;39.15;;;15.80;99.90;;;;;;5091739;28;20022;-66
2021/06/06 08:59:38;;;;;;;66.88;40.47;;;15.70;99.90;;;;;;5091771;28;20029;-65
2021/06/06 09:02:22;;;;;;;73.43;39.95;;;15.80;99.90;;;;;;5091609;28;20024;-66
2021/06/06 09:04:50;;;;;;;65.75;38.50;;;15.80;99.90;;;;;;5091794;28;20024;-66
2021/06/06 09:07:17;;;;;;;64.30;38.83;;;15.90;99.90;;;;;;5091597;28;20047;-66
2021/06/06 09:09:46;;;;;;;67.03;38.42;;;15.90;99.90;;;;;;5091354;28;20032;-66
2021/06/06 09:12:18;;;;;;;61.22;36.15;;;16.00;99.90;;;;;;5091380;28;20024;-65
2021/06/06 09:14:45;;;;;;;61.92;35.63;;;16.10;99.90;;;;;;5090769;28;20441;-66
2021/06/06 09:17:33;;;;;;;61.45;32.72;;;16.20;99.90;;;;;;5091586;28;20472;-67
2021/06/06 09:20:00;;;;;;;50.85;33.00;;;16.20;99.90;;;;;;5091589;28;20039;-65
2021/06/06 09:22:44;;;;;;;56.35;33.33;;;16.30;99.90;;;;;;5091399;28;20064;-65
2021/06/06 09:25:18;;;;;;;53.85;33.83;;;16.40;99.90;;;;;;5091609;28;20034;-65
2021/06/06 09:27:46;;;;;;;60.55;34.45;;;16.50;99.90;;;;;;5091312;28;20066;-64
2021/06/06 09:30:14;;;;;;;58.83;34.25;;;16.40;99.90;;;;;;5091345;28;20063;-65
2021/06/06 09:32:41;;;;;;;61.35;36.22;;;16.30;99.90;;;;;;5091166;28;20028;-66
2021/06/06 09:35:23;;;;;;;60.78;35.80;;;16.30;99.90;;;;;;5091320;28;20027;-66
2021/06/06 09:38:00;;;;;;;63.42;36.78;;;16.40;99.90;;;;;;5090239;28;20038;-65
2021/06/06 09:40:33;;;;;;;62.15;36.10;;;16.40;99.90;;;;;;5091307;28;20082;-65
2021/06/06 09:42:59;;;;;;;55.70;33.50;;;16.40;99.90;;;;;;5091353;28;20476;-65
2021/06/06 09:45:35;;;;;;;58.55;35.40;;;16.40;99.90;;;;;;5091196;28;20081;-65
2021/06/06 09:48:10;;;;;;;59.90;35.60;;;16.40;99.90;;;;;;5091363;28;20411;-66
2021/06/06 09:50:48;;;;;;;55.55;34.15;;;16.40;99.90;;;;;;5091153;28;20020;-65
2021/06/06 09:53:30;;;;;;;50.13;33.22;;;16.40;99.90;;;;;;5091221;28;20020;-65
2021/06/06 09:56:18;;;;;;;56.30;33.95;;;16.40;99.90;;;;;;5091144;28;20099;-65
2021/06/06 09:58:47;;;;;;;52.55;34.40;;;16.40;99.90;;;;;;5091018;28;20696;-67
2021/06/06 10:01:22;;;;;;;58.50;35.08;;;16.30;99.90;;;;;;5090764;28;20400;-64
2021/06/06 10:04:22;;;;;;;54.40;31.90;;;16.30;99.90;;;;;;5091166;28;20036;-65
2021/06/06 10:06:51;;;;;;;52.85;32.78;;;16.40;99.90;;;;;;5077874;28;20069;-65
2021/06/06 10:09:19;;;;;;;48.90;32.42;;;16.30;99.90;;;;;;5094568;28;20032;-66
2021/06/06 10:12:06;;;;;;;48.80;32.13;;;16.30;99.90;;;;;;5094363;28;20071;-66
2021/06/06 10:14:41;;;;;;;55.55;36.03;;;16.30;99.90;;;;;;5094268;28;20043;-66
2021/06/06 10:17:13;;;;;;;53.22;33.20;;;16.30;99.90;;;;;;5094301;28;20039;-66
2021/06/06 10:19:54;;;;;;;57.03;33.30;;;16.50;99.90;;;;;;5094281;28;20099;-66
2021/06/06 10:22:29;;;;;;;53.25;32.88;;;16.60;99.90;;;;;;5094151;28;20076;-65
2021/06/06 10:25:08;;;;;;;55.78;32.97;;;16.50;99.90;;;;;;5094411;28;20032;-68
2021/06/06 10:27:39;;;;;;;54.63;32.80;;;16.60;99.90;;;;;;5094207;28;20039;-67
2021/06/06 10:30:05;;;;;;;50.15;28.98;;;16.90;99.90;;;;;;5094413;28;20047;-66
2021/06/06 10:32:40;;;;;;;46.08;29.50;;;17.40;99.90;;;;;;5093988;28;20031;-66
2021/06/06 10:35:20;;;;;;;42.08;27.92;;;17.90;99.90;;;;;;5094180;28;20016;-65
2021/06/06 10:37:52;;;;;;;43.47;26.55;;;18.20;99.90;;;;;;5094036;28;20020;-65
2021/06/06 10:40:27;;;;;;;37.95;25.23;;;18.40;99.90;;;;;;5094103;28;20024;-65
2021/06/06 10:43:12;;;;;;;38.53;25.58;;;19.00;99.90;;;;;;5093913;28;20020;-65
2021/06/06 10:45:51;;;;;;;34.92;22.92;;;19.40;99.90;;;;;;5093948;28;20024;-65
2021/06/06 10:48:22;;;;;;;36.80;26.05;;;19.70;99.90;;;;;;5094166;28;20020;-64
2021/06/06 10:50:52;;;;;;;34.78;23.73;;;19.70;99.90;;;;;;5092920;28;20329;-66
2021/06/06 10:53:23;;;;;;;33.83;24.42;;;19.50;99.90;;;;;;5093665;28;20485;-66
2021/06/06 10:56:15;;;;;;;39.03;27.05;;;19.40;99.90;;;;;;5093942;28;20028;-64
2021/06/06 10:58:49;;;;;;;35.67;24.52;;;19.20;99.90;;;;;;5093618;28;20020;-65
2021/06/06 11:01:18;;;;;;;35.20;24.48;;;19.40;99.90;;;;;;5093570;28;20380;-65
2021/06/06 11:03:48;;;;;;;30.30;21.95;;;19.60;99.90;;;;;;5093524;28;20024;-65
2021/06/06 11:06:30;;;;;;;32.17;21.93;;;19.80;99.90;;;;;;5093621;28;20034;-65
2021/06/06 11:08:57;;;;;;;30.63;22.25;;;20.00;99.90;;;;;;5093384;28;20026;-65
2021/06/06 11:11:39;;;;;;;33.63;24.42;;;20.10;99.90;;;;;;5093265;28;20632;-65
2021/06/06 11:14:12;;;;;;;32.03;22.50;;;20.10;99.90;;;;;;5093278;28;20028;-65
2021/06/06 11:16:52;;;;;;;27.58;21.30;;;19.90;99.90;;;;;;5092921;28;20078;-65
2021/06/06 11:19:20;;;;;;;32.13;21.98;;;19.60;99.90;;;;;;5093122;28;20024;-65
2021/06/06 11:22:09;;;;;;;27.98;20.98;;;19.50;99.90;;;;;;5093129;28;20028;-65
2021/06/06 11:24:41;;;;;;;31.40;23.88;;;19.40;99.90;;;;;;5093264;28;20028;-65
2021/06/06 11:27:16;;;;;;;28.05;21.10;;;19.20;99.90;;;;;;5093071;28;20028;-65
2021/06/06 11:30:02;;;;;;;31.08;22.27;;;19.00;99.90;;;;;;5092897;28;20136;-65
2021/06/06 11:32:33;;;;;;;28.17;20.90;;;19.20;99.90;;;;;;5092952;28;20066;-66
2021/06/06 11:35:05;;;;;;;27.25;19.83;;;19.40;99.90;;;;;;5093111;28;20059;-65
2021/06/06 11:37:32;;;;;;;27.27;20.15;;;19.70;99.90;;;;;;5092985;28;20349;-65
2021/06/06 11:40:00;;;;;;;27.65;20.33;;;19.60;99.90;;;;;;5091753;28;20073;-65
2021/06/06 11:42:36;;;;;;;27.33;19.35;;;19.60;99.90;;;;;;5092781;28;20020;-66
2021/06/06 11:45:35;;;;;;;26.00;20.58;;;19.60;99.90;;;;;;5092882;28;20034;-66
2021/06/06 11:48:28;;;;;;;28.98;19.90;;;19.70;99.90;;;;;;5092629;28;20020;-66
2021/06/06 11:50:57;;;;;;;30.17;21.42;;;19.60;99.90;;;;;;5087087;28;20457;-66
2021/06/06 11:53:41;;;;;;;27.13;19.08;;;19.30;99.90;;;;;;5092878;28;20040;-66
2021/06/06 11:56:27;;;;;;;32.80;21.73;;;19.30;99.90;;;;;;5092589;28;20016;-66
2021/06/06 11:59:10;;;;;;;27.38;20.33;;;19.30;99.90;;;;;;5091541;28;20020;-66
2021/06/06 12:01:50;;;;;;;30.33;20.63;;;19.40;99.90;;;;;;5091268;28;20104;-66
2021/06/06 12:04:16;;;;;;;29.13;19.77;;;19.40;99.90;;;;;;5092290;28;20453;-67
2021/06/06 12:06:44;;;;;;;29.67;19.92;;;19.20;99.90;;;;;;5092415;28;20051;-67
2021/06/06 12:09:17;;;;;;;28.17;19.80;;;19.20;99.90;;;;;;5092020;28;20031;-68
2021/06/06 12:11:44;;;;;;;30.23;19.80;;;19.20;99.90;;;;;;5092022;28;20444;-67
2021/06/06 12:14:22;;;;;;;26.40;18.92;;;19.10;99.90;;;;;;5091654;28;20108;-67
2021/06/06 12:16:54;;;;;;;26.58;19.15;;;19.10;99.90;;;;;;5090974;28;20024;-68
2021/06/06 12:19:27;;;;;;;24.98;18.23;;;19.30;99.90;;;;;;5091083;28;20024;-67
2021/06/06 12:22:27;;;;;;;23.25;17.98;;;19.60;99.90;;;;;;5090848;28;20353;-67
2021/06/06 12:25:14;;;;;;;22.38;16.13;;;19.70;99.90;;;;;;5084962;28;20068;-68
2021/06/06 12:27:47;;;;;;;22.67;17.13;;;19.60;99.90;;;;;;5089745;28;20034;-68
2021/06/06 12:30:44;;;;;;;19.15;14.50;;;19.40;99.90;;;;;;5090249;28;20411;-67
2021/06/06 12:33:19;;;;;;;26.27;17.00;;;19.60;99.90;;;;;;5091799;28;20032;-68
2021/06/06 12:35:53;;;;;;;25.02;17.58;;;19.80;99.90;;;;;;5091832;28;20106;-66
2021/06/06 12:38:22;;;;;;;23.02;16.20;;;20.10;99.90;;;;;;5091945;28;20593;-66
2021/06/06 12:40:51;;;;;;;22.63;15.55;;;20.20;99.90;;;;;;5091863;28;20396;-67
2021/06/06 12:43:24;;;;;;;23.80;15.63;;;20.30;99.90;;;;;;5091885;28;20054;-66
2021/06/06 12:45:51;;;;;;;23.67;16.52;;;20.50;99.90;;;;;;5091870;28;20031;-67
2021/06/06 12:48:28;;;;;;;21.67;16.00;;;20.50;99.90;;;;;;5092138;28;20420;-67
2021/06/06 12:50:55;;;;;;;26.02;16.67;;;20.60;99.90;;;;;;5090940;28;20082;-68
2021/06/06 12:53:34;;;;;;;20.35;14.80;;;20.50;99.90;;;;;;5091844;28;20020;-68